sensor_id;sensor_type;location;lat;lon;timestamp;pressure;altitude;pressure_sealevel;temperature;humidity
20455;BME280;10386;54.314;10.022;2023-07-20T00:00:41;100806.03;;;14.17;100.00
20455;BME280;10386;54.314;10.022;2023-07-20T00:03:13;100801.91;;;14.12;100.00
20455;BME280;10386;54.314;10.022;2023-07-20T00:05:43;100805.91;;;14.08;100.00
20455;BME280;10386;54.314;10.022;2023-07-20T00:08:11;100797.25;;;14.03;100.00
20455;BME280;10386;54.314;10.022;2023-07-20T00:10:37;100797.88;;;13.95;100.00
20455;BME280;10386;54.314;10.022;2023-07-20T00:13:04;100802.28;;;13.87;100.00
20455;BME280;10386;54.314;10.022;2023-07-20T00:15:31;100790.03;;;13.81;100.00
20455;BME280;10386;54.314;10.022;2023-07-20T00:17:58;100790.31;;;13.68;100.00
20455;BME280;10386;54.314;10.022;2023-07-20T00:20:24;100777.84;;;13.65;100.00
20455;BME280;10386;54.314;10.022;2023-07-20T00:22:52;100774.59;;;13.60;100.00
20455;BME280;10386;54.314;10.022;2023-07-20T00:25:19;100769.66;;;13.54;100.00
20455;BME280;10386;54.314;10.022;2023-07-20T00:27:45;100770.44;;;13.45;100.00
20455;BME280;10386;54.314;10.022;2023-07-20T00:30:12;100770.84;;;13.41;100.00
20455;BME280;10386;54.314;10.022;2023-07-20T00:32:39;100764.50;;;13.40;100.00
20455;BME280;10386;54.314;10.022;2023-07-20T00:35:06;100763.75;;;13.38;100.00
20455;BME280;10386;54.314;10.022;2023-07-20T00:37:33;100756.47;;;13.39;100.00
20455;BME280;10386;54.314;10.022;2023-07-20T00:40:00;100760.97;;;13.29;100.00
20455;BME280;10386;54.314;10.022;2023-07-20T00:42:27;100746.34;;;13.30;100.00
20455;BME280;10386;54.314;10.022;2023-07-20T00:44:53;100742.88;;;13.28;100.00
20455;BME280;10386;54.314;10.022;2023-07-20T00:47:20;100743.38;;;13.22;100.00
20455;BME280;10386;54.314;10.022;2023-07-20T00:49:48;100729.88;;;13.20;100.00
20455;BME280;10386;54.314;10.022;2023-07-20T00:52:15;100726.28;;;13.20;100.00
20455;BME280;10386;54.314;10.022;2023-07-20T00:54:41;100723.41;;;13.21;100.00
20455;BME280;10386;54.314;10.022;2023-07-20T00:57:09;100715.38;;;13.20;100.00
20455;BME280;10386;54.314;10.022;2023-07-20T00:59:36;100713.78;;;13.17;100.00
20455;BME280;10386;54.314;10.022;2023-07-20T01:02:03;100707.84;;;13.12;100.00
20455;BME280;10386;54.314;10.022;2023-07-20T01:04:30;100708.81;;;13.11;100.00
20455;BME280;10386;54.314;10.022;2023-07-20T01:07:06;100700.91;;;13.08;100.00
20455;BME280;10386;54.314;10.022;2023-07-20T01:13:00;100690.25;;;13.05;100.00
20455;BME280;10386;54.314;10.022;2023-07-20T01:15:28;100696.72;;;13.04;100.00
20455;BME280;10386;54.314;10.022;2023-07-20T01:17:55;100691.50;;;13.01;100.00
20455;BME280;10386;54.314;10.022;2023-07-20T01:20:22;100688.78;;;13.01;100.00
20455;BME280;10386;54.314;10.022;2023-07-20T01:26:08;100678.00;;;13.00;100.00
20455;BME280;10386;54.314;10.022;2023-07-20T01:31:34;100671.06;;;12.96;100.00
20455;BME280;10386;54.314;10.022;2023-07-20T01:34:03;100663.78;;;12.96;100.00
20455;BME280;10386;54.314;10.022;2023-07-20T01:36:34;100659.66;;;12.91;100.00
20455;BME280;10386;54.314;10.022;2023-07-20T01:39:02;100652.88;;;12.96;100.00
20455;BME280;10386;54.314;10.022;2023-07-20T01:41:29;100654.13;;;12.92;100.00
20455;BME280;10386;54.314;10.022;2023-07-20T01:43:59;100652.63;;;12.88;100.00
20455;BME280;10386;54.314;10.022;2023-07-20T01:46:26;100642.72;;;12.87;100.00
20455;BME280;10386;54.314;10.022;2023-07-20T01:48:54;100647.44;;;12.85;100.00
20455;BME280;10386;54.314;10.022;2023-07-20T01:51:21;100638.53;;;12.83;100.00
20455;BME280;10386;54.314;10.022;2023-07-20T01:53:48;100636.06;;;12.80;100.00
20455;BME280;10386;54.314;10.022;2023-07-20T01:56:14;100625.63;;;12.74;100.00
20455;BME280;10386;54.314;10.022;2023-07-20T01:58:41;100429.66;;;12.73;100.00
20455;BME280;10386;54.314;10.022;2023-07-20T02:01:08;100422.75;;;12.69;100.00
20455;BME280;10386;54.314;10.022;2023-07-20T02:03:35;100403.06;;;12.65;100.00
20455;BME280;10386;54.314;10.022;2023-07-20T02:06:02;100402.88;;;12.57;100.00
20455;BME280;10386;54.314;10.022;2023-07-20T02:08:29;100400.31;;;12.56;100.00
20455;BME280;10386;54.314;10.022;2023-07-20T02:10:55;100391.00;;;12.58;100.00
20455;BME280;10386;54.314;10.022;2023-07-20T02:13:22;100276.63;;;12.58;100.00
20455;BME280;10386;54.314;10.022;2023-07-20T02:15:49;100257.44;;;12.60;100.00
20455;BME280;10386;54.314;10.022;2023-07-20T02:18:17;100259.00;;;12.62;100.00
20455;BME280;10386;54.314;10.022;2023-07-20T02:20:44;100256.84;;;12.56;100.00
20455;BME280;10386;54.314;10.022;2023-07-20T02:23:11;100245.41;;;12.62;100.00
20455;BME280;10386;54.314;10.022;2023-07-20T02:25:38;100234.50;;;12.62;100.00
20455;BME280;10386;54.314;10.022;2023-07-20T02:28:07;100227.97;;;12.74;100.00
20455;BME280;10386;54.314;10.022;2023-07-20T02:30:34;100231.44;;;12.76;100.00
20455;BME280;10386;54.314;10.022;2023-07-20T02:33:04;100217.25;;;12.82;100.00
20455;BME280;10386;54.314;10.022;2023-07-20T02:35:32;100196.63;;;12.89;100.00
20455;BME280;10386;54.314;10.022;2023-07-20T02:37:59;100191.78;;;12.93;100.00
20455;BME280;10386;54.314;10.022;2023-07-20T02:40:26;100197.13;;;12.94;100.00
20455;BME280;10386;54.314;10.022;2023-07-20T02:42:54;100193.38;;;12.95;100.00
20455;BME280;10386;54.314;10.022;2023-07-20T02:45:21;100188.94;;;12.94;100.00
20455;BME280;10386;54.314;10.022;2023-07-20T02:47:47;100187.59;;;12.89;100.00
20455;BME280;10386;54.314;10.022;2023-07-20T02:50:14;100182.97;;;12.80;100.00
20455;BME280;10386;54.314;10.022;2023-07-20T02:52:41;100184.13;;;12.77;100.00
20455;BME280;10386;54.314;10.022;2023-07-20T02:55:09;100188.09;;;12.73;100.00
20455;BME280;10386;54.314;10.022;2023-07-20T02:57:35;100185.09;;;12.67;100.00
20455;BME280;10386;54.314;10.022;2023-07-20T03:00:03;100198.66;;;12.57;100.00
20455;BME280;10386;54.314;10.022;2023-07-20T03:02:32;100199.66;;;12.56;100.00
20455;BME280;10386;54.314;10.022;2023-07-20T03:04:59;100198.19;;;12.52;100.00
20455;BME280;10386;54.314;10.022;2023-07-20T03:07:28;100195.38;;;12.54;100.00
20455;BME280;10386;54.314;10.022;2023-07-20T03:09:55;100196.63;;;12.50;100.00
20455;BME280;10386;54.314;10.022;2023-07-20T03:12:22;100202.34;;;12.47;100.00
20455;BME280;10386;54.314;10.022;2023-07-20T03:14:49;100205.63;;;12.41;100.00
20455;BME280;10386;54.314;10.022;2023-07-20T03:17:15;100202.44;;;12.36;100.00
20455;BME280;10386;54.314;10.022;2023-07-20T03:19:42;100203.16;;;12.38;100.00
20455;BME280;10386;54.314;10.022;2023-07-20T03:22:09;100193.56;;;12.43;100.00
20455;BME280;10386;54.314;10.022;2023-07-20T03:24:36;100195.31;;;12.44;100.00
20455;BME280;10386;54.314;10.022;2023-07-20T03:27:03;100191.22;;;12.59;100.00
20455;BME280;10386;54.314;10.022;2023-07-20T03:29:31;100182.63;;;12.64;100.00
20455;BME280;10386;54.314;10.022;2023-07-20T03:31:59;100186.53;;;12.71;100.00
20455;BME280;10386;54.314;10.022;2023-07-20T03:34:26;100201.69;;;12.64;100.00
20455;BME280;10386;54.314;10.022;2023-07-20T03:36:52;100188.66;;;12.67;100.00
20455;BME280;10386;54.314;10.022;2023-07-20T03:39:19;100204.28;;;12.65;100.00
20455;BME280;10386;54.314;10.022;2023-07-20T03:41:46;100193.97;;;12.69;100.00
20455;BME280;10386;54.314;10.022;2023-07-20T03:44:13;100193.53;;;12.73;100.00
20455;BME280;10386;54.314;10.022;2023-07-20T03:46:40;100190.31;;;12.79;100.00
20455;BME280;10386;54.314;10.022;2023-07-20T03:49:07;100192.16;;;12.79;100.00
20455;BME280;10386;54.314;10.022;2023-07-20T03:51:35;100189.88;;;12.84;100.00
20455;BME280;10386;54.314;10.022;2023-07-20T03:54:02;100192.19;;;12.88;100.00
20455;BME280;10386;54.314;10.022;2023-07-20T03:56:29;100198.25;;;12.92;100.00
20455;BME280;10386;54.314;10.022;2023-07-20T03:59:01;100192.38;;;12.96;100.00
20455;BME280;10386;54.314;10.022;2023-07-20T04:01:28;100195.28;;;13.04;100.00
20455;BME280;10386;54.314;10.022;2023-07-20T04:03:54;100201.16;;;13.09;100.00
20455;BME280;10386;54.314;10.022;2023-07-20T04:06:22;100194.44;;;13.13;100.00
20455;BME280;10386;54.314;10.022;2023-07-20T04:08:49;100191.41;;;13.16;100.00
20455;BME280;10386;54.314;10.022;2023-07-20T04:11:16;100194.16;;;13.16;100.00
20455;BME280;10386;54.314;10.022;2023-07-20T04:13:43;100189.53;;;13.17;100.00
20455;BME280;10386;54.314;10.022;2023-07-20T04:16:09;100189.13;;;13.21;100.00
20455;BME280;10386;54.314;10.022;2023-07-20T04:18:36;100194.00;;;13.18;100.00
20455;BME280;10386;54.314;10.022;2023-07-20T04:21:03;100197.72;;;13.17;100.00
20455;BME280;10386;54.314;10.022;2023-07-20T04:23:30;100199.94;;;13.70;100.00
20455;BME280;10386;54.314;10.022;2023-07-20T04:25:56;100182.56;;;14.82;100.00
20455;BME280;10386;54.314;10.022;2023-07-20T04:28:23;100188.28;;;15.77;100.00
20455;BME280;10386;54.314;10.022;2023-07-20T04:30:50;100199.97;;;16.47;100.00
20455;BME280;10386;54.314;10.022;2023-07-20T04:33:18;100236.91;;;16.94;100.00
20455;BME280;10386;54.314;10.022;2023-07-20T04:35:49;100278.28;;;17.34;100.00
20455;BME280;10386;54.314;10.022;2023-07-20T04:38:17;100345.25;;;17.49;100.00
20455;BME280;10386;54.314;10.022;2023-07-20T04:40:48;100410.50;;;17.12;100.00
20455;BME280;10386;54.314;10.022;2023-07-20T04:43:16;100476.88;;;16.46;100.00
20455;BME280;10386;54.314;10.022;2023-07-20T04:45:43;100507.25;;;15.98;100.00
20455;BME280;10386;54.314;10.022;2023-07-20T04:48:12;100541.63;;;15.83;100.00
20455;BME280;10386;54.314;10.022;2023-07-20T04:50:44;100566.84;;;15.87;100.00
20455;BME280;10386;54.314;10.022;2023-07-20T04:53:12;100601.31;;;15.70;100.00
20455;BME280;10386;54.314;10.022;2023-07-20T04:55:39;100628.16;;;15.38;100.00
20455;BME280;10386;54.314;10.022;2023-07-20T04:58:06;100643.69;;;15.38;100.00
20455;BME280;10386;54.314;10.022;2023-07-20T05:00:33;100670.75;;;15.31;100.00
20455;BME280;10386;54.314;10.022;2023-07-20T05:03:00;100689.91;;;15.31;100.00
20455;BME280;10386;54.314;10.022;2023-07-20T05:05:27;100703.88;;;15.38;100.00
20455;BME280;10386;54.314;10.022;2023-07-20T05:07:54;100708.75;;;15.44;100.00
20455;BME280;10386;54.314;10.022;2023-07-20T05:10:21;100696.69;;;15.65;100.00
20455;BME280;10386;54.314;10.022;2023-07-20T05:12:48;100715.97;;;15.64;100.00
20455;BME280;10386;54.314;10.022;2023-07-20T05:15:15;100864.75;;;15.53;100.00
20455;BME280;10386;54.314;10.022;2023-07-20T05:17:41;100896.56;;;15.24;100.00
20455;BME280;10386;54.314;10.022;2023-07-20T05:20:09;100913.63;;;15.08;100.00
20455;BME280;10386;54.314;10.022;2023-07-20T05:22:39;100929.03;;;15.09;100.00
20455;BME280;10386;54.314;10.022;2023-07-20T05:25:10;100929.34;;;15.15;100.00
20455;BME280;10386;54.314;10.022;2023-07-20T05:27:38;100930.53;;;15.42;100.00
20455;BME280;10386;54.314;10.022;2023-07-20T05:30:06;100940.31;;;15.35;100.00
20455;BME280;10386;54.314;10.022;2023-07-20T05:32:33;100959.03;;;15.40;100.00
20455;BME280;10386;54.314;10.022;2023-07-20T05:35:00;100961.47;;;15.33;100.00
20455;BME280;10386;54.314;10.022;2023-07-20T05:37:27;100967.94;;;15.32;100.00
20455;BME280;10386;54.314;10.022;2023-07-20T05:39:54;100975.03;;;15.24;100.00
20455;BME280;10386;54.314;10.022;2023-07-20T05:42:21;100991.53;;;15.13;100.00
20455;BME280;10386;54.314;10.022;2023-07-20T05:44:48;100996.91;;;15.04;100.00
20455;BME280;10386;54.314;10.022;2023-07-20T05:47:16;100993.69;;;15.30;100.00
20455;BME280;10386;54.314;10.022;2023-07-20T05:49:43;100998.22;;;15.40;100.00
20455;BME280;10386;54.314;10.022;2023-07-20T05:52:09;101002.41;;;15.44;100.00
20455;BME280;10386;54.314;10.022;2023-07-20T05:54:36;101012.84;;;15.60;100.00
20455;BME280;10386;54.314;10.022;2023-07-20T05:57:03;101014.09;;;15.76;100.00
20455;BME280;10386;54.314;10.022;2023-07-20T05:59:30;101025.66;;;15.80;100.00
20455;BME280;10386;54.314;10.022;2023-07-20T06:01:58;101041.44;;;16.06;100.00
20455;BME280;10386;54.314;10.022;2023-07-20T06:04:25;101051.19;;;15.90;100.00
20455;BME280;10386;54.314;10.022;2023-07-20T06:06:52;101068.03;;;15.65;100.00
20455;BME280;10386;54.314;10.022;2023-07-20T06:09:18;101070.94;;;15.63;100.00
20455;BME280;10386;54.314;10.022;2023-07-20T06:11:45;101063.00;;;15.90;100.00
20455;BME280;10386;54.314;10.022;2023-07-20T06:14:12;101064.28;;;16.16;100.00
20455;BME280;10386;54.314;10.022;2023-07-20T06:16:39;101074.53;;;16.24;100.00
20455;BME280;10386;54.314;10.022;2023-07-20T06:19:06;101082.06;;;16.31;100.00
20455;BME280;10386;54.314;10.022;2023-07-20T06:21:33;101098.34;;;16.23;100.00
20455;BME280;10386;54.314;10.022;2023-07-20T06:23:59;101107.09;;;16.47;100.00
20455;BME280;10386;54.314;10.022;2023-07-20T06:26:26;101113.47;;;16.57;100.00
20455;BME280;10386;54.314;10.022;2023-07-20T06:28:53;101125.94;;;16.70;100.00
20455;BME280;10386;54.314;10.022;2023-07-20T06:31:20;101148.91;;;16.98;100.00
20455;BME280;10386;54.314;10.022;2023-07-20T06:33:47;101167.50;;;17.43;100.00
20455;BME280;10386;54.314;10.022;2023-07-20T06:36:18;101183.78;;;18.47;100.00
20455;BME280;10386;54.314;10.022;2023-07-20T06:38:45;101222.75;;;19.16;100.00
20455;BME280;10386;54.314;10.022;2023-07-20T06:41:32;101253.47;;;19.90;100.00
20455;BME280;10386;54.314;10.022;2023-07-20T06:44:02;101284.44;;;19.84;100.00
20455;BME280;10386;54.314;10.022;2023-07-20T06:46:29;101314.81;;;18.85;100.00
20455;BME280;10386;54.314;10.022;2023-07-20T06:48:55;101322.38;;;19.46;100.00
20455;BME280;10386;54.314;10.022;2023-07-20T06:51:26;101325.25;;;19.54;100.00
20455;BME280;10386;54.314;10.022;2023-07-20T06:53:53;101342.28;;;19.40;100.00
20455;BME280;10386;54.314;10.022;2023-07-20T06:56:21;101357.63;;;18.41;100.00
20455;BME280;10386;54.314;10.022;2023-07-20T06:58:51;101360.22;;;18.71;100.00
20455;BME280;10386;54.314;10.022;2023-07-20T07:01:18;101350.09;;;18.53;100.00
20455;BME280;10386;54.314;10.022;2023-07-20T07:04:04;101354.47;;;19.01;100.00
20455;BME280;10386;54.314;10.022;2023-07-20T07:06:32;101342.41;;;18.00;100.00
20455;BME280;10386;54.314;10.022;2023-07-20T07:08:59;101350.28;;;17.46;100.00
20455;BME280;10386;54.314;10.022;2023-07-20T07:11:26;101366.00;;;17.44;100.00
20455;BME280;10386;54.314;10.022;2023-07-20T07:13:53;101371.63;;;17.12;100.00
20455;BME280;10386;54.314;10.022;2023-07-20T07:16:23;101382.13;;;16.77;100.00
20455;BME280;10386;54.314;10.022;2023-07-20T07:18:50;101395.72;;;16.27;100.00
20455;BME280;10386;54.314;10.022;2023-07-20T07:21:17;101406.00;;;16.03;100.00
20455;BME280;10386;54.314;10.022;2023-07-20T07:23:45;101408.28;;;15.98;100.00
20455;BME280;10386;54.314;10.022;2023-07-20T07:26:12;101395.50;;;15.88;100.00
20455;BME280;10386;54.314;10.022;2023-07-20T07:28:39;101397.94;;;17.15;100.00
20455;BME280;10386;54.314;10.022;2023-07-20T07:31:07;101383.91;;;17.87;100.00
20455;BME280;10386;54.314;10.022;2023-07-20T07:33:34;101379.84;;;17.91;100.00
20455;BME280;10386;54.314;10.022;2023-07-20T07:36:02;101379.91;;;18.38;100.00
20455;BME280;10386;54.314;10.022;2023-07-20T07:38:29;101374.63;;;18.83;100.00
20455;BME280;10386;54.314;10.022;2023-07-20T07:41:16;101354.88;;;18.51;100.00
20455;BME280;10386;54.314;10.022;2023-07-20T07:43:42;101354.56;;;18.07;100.00
20455;BME280;10386;54.314;10.022;2023-07-20T07:46:09;101366.22;;;17.61;100.00
20455;BME280;10386;54.314;10.022;2023-07-20T07:48:36;101362.75;;;17.29;100.00
20455;BME280;10386;54.314;10.022;2023-07-20T07:51:03;101377.53;;;17.08;100.00
20455;BME280;10386;54.314;10.022;2023-07-20T07:53:30;101368.72;;;17.34;100.00
20455;BME280;10386;54.314;10.022;2023-07-20T07:55:56;101374.34;;;17.72;100.00
20455;BME280;10386;54.314;10.022;2023-07-20T07:58:23;101367.59;;;18.42;100.00
20455;BME280;10386;54.314;10.022;2023-07-20T08:00:50;101372.34;;;18.69;100.00
20455;BME280;10386;54.314;10.022;2023-07-20T08:03:17;101360.56;;;18.95;100.00
20455;BME280;10386;54.314;10.022;2023-07-20T08:05:45;101359.22;;;19.18;100.00
20455;BME280;10386;54.314;10.022;2023-07-20T08:08:12;101344.53;;;18.81;100.00
20455;BME280;10386;54.314;10.022;2023-07-20T08:10:39;101355.59;;;18.43;100.00
20455;BME280;10386;54.314;10.022;2023-07-20T08:13:06;101374.16;;;17.25;100.00
20455;BME280;10386;54.314;10.022;2023-07-20T08:15:33;101405.38;;;16.83;100.00
20455;BME280;10386;54.314;10.022;2023-07-20T08:17:59;101417.53;;;17.10;100.00
20455;BME280;10386;54.314;10.022;2023-07-20T08:20:26;101422.72;;;17.64;100.00
20455;BME280;10386;54.314;10.022;2023-07-20T08:22:56;101413.19;;;18.26;100.00
20455;BME280;10386;54.314;10.022;2023-07-20T08:25:25;101412.69;;;18.97;100.00
20455;BME280;10386;54.314;10.022;2023-07-20T08:27:51;101395.78;;;18.07;100.00
20455;BME280;10386;54.314;10.022;2023-07-20T08:30:21;101404.28;;;17.85;100.00
20455;BME280;10386;54.314;10.022;2023-07-20T08:32:48;101414.25;;;17.16;100.00
20455;BME280;10386;54.314;10.022;2023-07-20T08:35:15;101432.22;;;16.79;100.00
20455;BME280;10386;54.314;10.022;2023-07-20T08:37:42;101437.31;;;16.64;100.00
20455;BME280;10386;54.314;10.022;2023-07-20T08:40:09;101423.75;;;17.33;100.00
20455;BME280;10386;54.314;10.022;2023-07-20T08:42:38;101425.19;;;17.67;100.00
20455;BME280;10386;54.314;10.022;2023-07-20T08:45:06;101412.50;;;17.75;100.00
20455;BME280;10386;54.314;10.022;2023-07-20T08:47:35;101412.03;;;18.28;100.00
20455;BME280;10386;54.314;10.022;2023-07-20T08:50:05;101404.78;;;18.65;100.00
20455;BME280;10386;54.314;10.022;2023-07-20T08:52:34;101402.34;;;18.53;100.00
20455;BME280;10386;54.314;10.022;2023-07-20T08:55:01;101400.69;;;18.22;100.00
20455;BME280;10386;54.314;10.022;2023-07-20T08:57:33;101395.94;;;17.96;100.00
20455;BME280;10386;54.314;10.022;2023-07-20T09:00:02;101404.78;;;18.65;100.00
20455;BME280;10386;54.314;10.022;2023-07-20T09:02:35;101394.13;;;19.08;100.00
20455;BME280;10386;54.314;10.022;2023-07-20T09:05:06;101383.66;;;19.57;100.00
20455;BME280;10386;54.314;10.022;2023-07-20T09:07:35;101375.84;;;19.26;100.00
20455;BME280;10386;54.314;10.022;2023-07-20T09:10:02;101360.56;;;19.68;100.00
20455;BME280;10386;54.314;10.022;2023-07-20T09:12:37;101363.28;;;19.95;100.00
20455;BME280;10386;54.314;10.022;2023-07-20T09:15:05;101353.00;;;19.43;100.00
20455;BME280;10386;54.314;10.022;2023-07-20T09:17:33;101368.53;;;18.89;100.00
20455;BME280;10386;54.314;10.022;2023-07-20T09:20:04;101362.25;;;19.52;100.00
20455;BME280;10386;54.314;10.022;2023-07-20T09:22:38;101367.09;;;19.67;100.00
20455;BME280;10386;54.314;10.022;2023-07-20T09:25:12;101359.09;;;19.91;100.00
20455;BME280;10386;54.314;10.022;2023-07-20T09:27:43;101401.91;;;18.48;100.00
20455;BME280;10386;54.314;10.022;2023-07-20T09:30:11;101426.22;;;17.36;100.00
20455;BME280;10386;54.314;10.022;2023-07-20T09:32:45;101443.91;;;17.43;100.00
20455;BME280;10386;54.314;10.022;2023-07-20T09:35:17;101457.59;;;17.73;100.00
20455;BME280;10386;54.314;10.022;2023-07-20T09:38:00;101451.13;;;18.60;100.00
20455;BME280;10386;54.314;10.022;2023-07-20T09:40:30;101451.72;;;18.73;100.00
20455;BME280;10386;54.314;10.022;2023-07-20T09:43:00;101440.25;;;18.49;100.00
20455;BME280;10386;54.314;10.022;2023-07-20T09:45:33;101455.41;;;18.25;100.00
20455;BME280;10386;54.314;10.022;2023-07-20T09:48:03;101468.34;;;18.34;100.00
20455;BME280;10386;54.314;10.022;2023-07-20T09:50:41;101460.25;;;18.42;100.00
20455;BME280;10386;54.314;10.022;2023-07-20T09:53:12;101445.03;;;18.28;100.00
20455;BME280;10386;54.314;10.022;2023-07-20T09:55:44;101455.41;;;19.10;100.00
20455;BME280;10386;54.314;10.022;2023-07-20T09:58:11;101431.22;;;19.04;100.00
20455;BME280;10386;54.314;10.022;2023-07-20T10:00:38;101412.50;;;19.27;100.00
20455;BME280;10386;54.314;10.022;2023-07-20T10:03:10;101400.63;;;19.53;100.00
20455;BME280;10386;54.314;10.022;2023-07-20T10:05:40;101399.34;;;19.57;100.00
20455;BME280;10386;54.314;10.022;2023-07-20T10:08:12;101392.53;;;19.78;100.00
20455;BME280;10386;54.314;10.022;2023-07-20T10:10:42;101388.75;;;19.26;100.00
20455;BME280;10386;54.314;10.022;2023-07-20T10:13:27;101371.88;;;19.38;100.00
20455;BME280;10386;54.314;10.022;2023-07-20T10:16:03;101375.75;;;19.45;100.00
20455;BME280;10386;54.314;10.022;2023-07-20T10:18:40;101393.56;;;20.04;100.00
20455;BME280;10386;54.314;10.022;2023-07-20T10:21:09;101375.84;;;18.05;100.00
20455;BME280;10386;54.314;10.022;2023-07-20T10:23:39;101451.91;;;16.84;100.00
20455;BME280;10386;54.314;10.022;2023-07-20T10:26:06;101464.88;;;16.20;100.00
20455;BME280;10386;54.314;10.022;2023-07-20T10:28:36;101476.25;;;16.47;100.00
20455;BME280;10386;54.314;10.022;2023-07-20T10:31:03;101479.88;;;16.47;100.00
20455;BME280;10386;54.314;10.022;2023-07-20T10:33:30;101485.31;;;16.58;100.00
20455;BME280;10386;54.314;10.022;2023-07-20T10:36:01;101476.69;;;17.24;100.00
20455;BME280;10386;54.314;10.022;2023-07-20T10:38:39;101476.91;;;18.01;100.00
20455;BME280;10386;54.314;10.022;2023-07-20T10:41:34;101459.66;;;18.48;100.00
20455;BME280;10386;54.314;10.022;2023-07-20T10:44:07;101444.75;;;18.60;100.00
20455;BME280;10386;54.314;10.022;2023-07-20T10:46:44;101451.38;;;19.24;100.00
20455;BME280;10386;54.314;10.022;2023-07-20T10:49:14;101434.97;;;19.32;100.00
20455;BME280;10386;54.314;10.022;2023-07-20T10:56:57;101418.13;;;18.32;100.00
20455;BME280;10386;54.314;10.022;2023-07-20T11:01:55;101440.59;;;17.49;100.00
20455;BME280;10386;54.314;10.022;2023-07-20T11:04:39;101449.31;;;17.33;100.00
20455;BME280;10386;54.314;10.022;2023-07-20T11:07:06;101462.63;;;17.68;100.00
20455;BME280;10386;54.314;10.022;2023-07-20T11:09:37;101466.91;;;18.49;100.00
20455;BME280;10386;54.314;10.022;2023-07-20T11:12:23;101444.47;;;18.63;100.00
20455;BME280;10386;54.314;10.022;2023-07-20T11:14:55;101448.25;;;19.46;100.00
20455;BME280;10386;54.314;10.022;2023-07-20T11:17:30;101444.13;;;19.86;100.00
20455;BME280;10386;54.314;10.022;2023-07-20T11:19:58;101432.59;;;19.73;100.00
20455;BME280;10386;54.314;10.022;2023-07-20T11:22:33;101407.94;;;19.71;100.00
20455;BME280;10386;54.314;10.022;2023-07-20T11:25:00;101422.97;;;19.04;100.00
20455;BME280;10386;54.314;10.022;2023-07-20T11:27:27;101404.19;;;18.81;100.00
20455;BME280;10386;54.314;10.022;2023-07-20T11:29:55;101390.38;;;19.09;100.00
20455;BME280;10386;54.314;10.022;2023-07-20T11:32:23;101390.78;;;19.60;100.00
20455;BME280;10386;54.314;10.022;2023-07-20T11:34:51;101389.78;;;20.23;100.00
20455;BME280;10386;54.314;10.022;2023-07-20T11:37:17;101375.69;;;20.61;100.00
20455;BME280;10386;54.314;10.022;2023-07-20T11:39:45;101368.56;;;20.58;100.00
20455;BME280;10386;54.314;10.022;2023-07-20T11:42:13;101357.38;;;20.60;100.00
20455;BME280;10386;54.314;10.022;2023-07-20T11:45:03;101354.81;;;20.06;100.00
20455;BME280;10386;54.314;10.022;2023-07-20T11:47:32;101370.94;;;20.01;100.00
20455;BME280;10386;54.314;10.022;2023-07-20T11:50:03;101381.91;;;20.45;100.00
20455;BME280;10386;54.314;10.022;2023-07-20T11:52:32;101358.59;;;21.00;100.00
20455;BME280;10386;54.314;10.022;2023-07-20T11:54:59;101341.47;;;21.30;100.00
20455;BME280;10386;54.314;10.022;2023-07-20T11:57:26;101307.66;;;21.36;100.00
20455;BME280;10386;54.314;10.022;2023-07-20T11:59:57;101305.19;;;21.25;100.00
20455;BME280;10386;54.314;10.022;2023-07-20T12:02:28;101318.25;;;21.48;100.00
20455;BME280;10386;54.314;10.022;2023-07-20T12:04:56;101308.78;;;21.59;100.00
20455;BME280;10386;54.314;10.022;2023-07-20T12:07:27;101313.38;;;21.01;100.00
20455;BME280;10386;54.314;10.022;2023-07-20T12:10:04;101294.81;;;20.68;100.00
20455;BME280;10386;54.314;10.022;2023-07-20T12:12:41;101308.00;;;21.33;100.00
20455;BME280;10386;54.314;10.022;2023-07-20T12:17:44;101285.63;;;21.10;100.00
20455;BME280;10386;54.314;10.022;2023-07-20T12:20:12;101305.44;;;20.81;100.00
20455;BME280;10386;54.314;10.022;2023-07-20T12:22:43;101331.06;;;20.73;100.00
20455;BME280;10386;54.314;10.022;2023-07-20T12:25:10;101301.88;;;20.63;100.00
20455;BME280;10386;54.314;10.022;2023-07-20T12:27:37;101303.72;;;20.80;100.00
20455;BME280;10386;54.314;10.022;2023-07-20T12:30:08;101309.00;;;20.48;100.00
20455;BME280;10386;54.314;10.022;2023-07-20T12:32:35;101318.84;;;20.50;100.00
20455;BME280;10386;54.314;10.022;2023-07-20T12:35:02;101340.00;;;20.24;100.00
20455;BME280;10386;54.314;10.022;2023-07-20T12:37:29;101335.31;;;19.90;100.00
20455;BME280;10386;54.314;10.022;2023-07-20T12:39:55;101361.84;;;19.91;100.00
20455;BME280;10386;54.314;10.022;2023-07-20T12:42:22;101378.19;;;20.02;100.00
20455;BME280;10386;54.314;10.022;2023-07-20T12:44:49;101398.53;;;19.91;100.00
20455;BME280;10386;54.314;10.022;2023-07-20T12:47:18;101402.88;;;20.21;100.00
20455;BME280;10386;54.314;10.022;2023-07-20T12:49:45;101416.00;;;20.97;100.00
20455;BME280;10386;54.314;10.022;2023-07-20T12:52:13;101393.25;;;20.42;100.00
20455;BME280;10386;54.314;10.022;2023-07-20T12:54:40;101416.28;;;20.51;100.00
20455;BME280;10386;54.314;10.022;2023-07-20T12:57:07;101415.00;;;20.10;100.00